Westport, Connecticut
Current Conditions -  °F | °C
As of 4:52 PM on Saturday 25 Oct 2014 (Local Time) from KBDR Reporting Station
Clear Clear  
Wind Chill: 65°   Ceiling: Unl
Heat Index: 65°   Visibility: 10mi
Dew Point: 49°   Wind: 12mph
Humidity: 56%   Direction: 220°SW
Pressure: 29.65"   Gusts: NA
Location:  41.14°N, 73.36°W
Report Text: KBDR 252052Z 22010KT 10SM CLR 18/09 A2965 RMK AO2 SLP039 T01830094 56020
Loading
Personal Weather Stations






























Interactive Weather Map
Tropical Storm Tracking
New forecast layout! Learn more

10-Day Weather Forecast

Advertisements
Track Severe Weather on mobile